Time;durP1;ratioP1;P1;durP2;ratioP2;P2;SDS_P1;SDS_P2;PMS_P1;PMS_P2;Temp;Humidity;BMP_temperature;BMP_pressure;BME280_temperature;BME280_humidity;BME280_pressure;Samples;Min_cycle;Max_cycle;Signal;HPM_P1;HPM_P2
2021/09/22 00:00:05;;;;;;;8.97;8.07;;;10.10;99.90;;;;;;5053233;28;20209;-58
2021/09/22 00:02:32;;;;;;;11.23;7.43;;;10.10;99.90;;;;;;5053370;28;20231;-58
2021/09/22 00:05:00;;;;;;;9.63;7.83;;;10.20;99.90;;;;;;5053175;28;20205;-59
2021/09/22 00:07:27;;;;;;;10.40;7.73;;;10.10;99.90;;;;;;5053406;28;20210;-59
2021/09/22 00:09:53;;;;;;;8.77;7.87;;;10.10;99.90;;;;;;5053073;28;20252;-61
2021/09/22 00:12:20;;;;;;;11.13;8.30;;;10.10;99.90;;;;;;5053154;28;20217;-59
2021/09/22 00:14:47;;;;;;;8.90;8.00;;;10.00;99.90;;;;;;5053029;28;20587;-59
2021/09/22 00:17:13;;;;;;;9.73;7.80;;;10.00;99.90;;;;;;5053151;28;20263;-61
2021/09/22 00:19:40;;;;;;;9.13;7.93;;;10.00;99.90;;;;;;5052855;28;20229;-59
2021/09/22 00:22:08;;;;;;;10.53;8.27;;;9.90;99.90;;;;;;5052894;28;20259;-59
2021/09/22 00:24:35;;;;;;;9.37;8.40;;;9.90;99.90;;;;;;5052982;28;20253;-59
2021/09/22 00:27:02;;;;;;;10.97;8.53;;;9.80;99.90;;;;;;5053027;28;20201;-59
2021/09/22 00:29:29;;;;;;;8.90;8.00;;;9.80;99.90;;;;;;5052784;28;20236;-59
2021/09/22 00:31:56;;;;;;;9.43;8.43;;;9.80;99.90;;;;;;5053147;28;20557;-58
2021/09/22 00:34:22;;;;;;;8.50;7.70;;;9.70;99.90;;;;;;5052784;28;20217;-59
2021/09/22 00:36:49;;;;;;;9.23;8.20;;;9.70;99.90;;;;;;5052918;28;20206;-59
2021/09/22 00:39:17;;;;;;;10.27;8.00;;;9.70;99.90;;;;;;5052533;28;20233;-59
2021/09/22 00:41:44;;;;;;;8.30;7.50;;;9.60;99.90;;;;;;5052693;28;20202;-58
2021/09/22 00:44:11;;;;;;;10.07;7.83;;;9.60;99.90;;;;;;5052606;28;20240;-59
2021/09/22 00:46:38;;;;;;;11.03;8.20;;;9.50;99.90;;;;;;5052625;28;20731;-58
2021/09/22 00:49:04;;;;;;;9.27;7.83;;;9.50;99.90;;;;;;5052544;28;20228;-58
2021/09/22 00:51:31;;;;;;;8.50;7.70;;;9.60;99.90;;;;;;5052703;28;20206;-59
2021/09/22 00:53:58;;;;;;;9.57;8.57;;;9.50;99.90;;;;;;5052385;28;20210;-58
2021/09/22 00:56:26;;;;;;;10.33;7.70;;;9.50;99.90;;;;;;5052615;28;20582;-59
2021/09/22 00:58:52;;;;;;;9.10;7.90;;;9.50;99.90;;;;;;5052497;28;20225;-58
2021/09/22 01:01:19;;;;;;;12.97;7.87;;;9.50;99.90;;;;;;5051798;28;20624;-59
2021/09/22 01:03:46;;;;;;;10.37;8.20;;;9.50;99.90;;;;;;5052220;28;20233;-59
2021/09/22 01:06:15;;;;;;;12.03;8.03;;;9.40;99.90;;;;;;5052415;28;20214;-59
2021/09/22 01:08:42;;;;;;;9.00;7.93;;;9.40;99.90;;;;;;5052169;28;20240;-60
2021/09/22 01:11:09;;;;;;;11.47;8.40;;;9.40;99.90;;;;;;5052499;28;20205;-59
2021/09/22 01:13:37;;;;;;;9.20;8.27;;;9.40;99.90;;;;;;5052138;28;20208;-58
2021/09/22 01:16:04;;;;;;;8.50;7.70;;;9.40;99.90;;;;;;5052112;28;20632;-58
2021/09/22 01:18:30;;;;;;;11.03;8.27;;;9.40;99.90;;;;;;5051936;28;20287;-58
2021/09/22 01:20:58;;;;;;;8.77;7.87;;;9.30;99.90;;;;;;5052004;28;20592;-58
2021/09/22 01:23:27;;;;;;;9.53;8.53;;;9.20;99.90;;;;;;5051809;28;20678;-59
2021/09/22 01:25:55;;;;;;;9.70;8.67;;;9.20;99.90;;;;;;5051960;28;20348;-60
2021/09/22 01:28:26;;;;;;;9.07;8.20;;;9.10;99.90;;;;;;5051734;28;20717;-60
2021/09/22 01:30:53;;;;;;;10.37;8.20;;;9.10;99.90;;;;;;5051684;28;20589;-58
2021/09/22 01:33:23;;;;;;;12.17;9.03;;;9.20;99.90;;;;;;5051772;28;20202;-58
2021/09/22 01:35:50;;;;;;;10.07;8.80;;;9.20;99.90;;;;;;5051826;28;20206;-60
2021/09/22 01:38:20;;;;;;;10.17;8.20;;;9.10;99.90;;;;;;5052013;28;20641;-60
2021/09/22 01:40:57;;;;;;;11.17;8.27;;;9.10;99.90;;;;;;5051574;28;20876;-58
2021/09/22 01:43:24;;;;;;;10.73;8.97;;;9.10;99.90;;;;;;5051416;28;20232;-59
2021/09/22 01:45:51;;;;;;;10.37;8.87;;;9.20;99.90;;;;;;5051591;28;20205;-59
2021/09/22 01:48:18;;;;;;;10.97;9.00;;;9.20;99.90;;;;;;5051398;28;20233;-58
2021/09/22 01:50:44;;;;;;;9.63;8.13;;;9.20;99.90;;;;;;5051400;28;20264;-59
2021/09/22 01:53:11;;;;;;;9.27;8.03;;;9.20;99.90;;;;;;5051352;28;20724;-58
2021/09/22 01:55:38;;;;;;;9.93;8.40;;;9.20;99.90;;;;;;5051150;28;20232;-59
2021/09/22 01:58:06;;;;;;;11.00;8.70;;;9.20;99.90;;;;;;5051291;28;20229;-58
2021/09/22 02:00:33;;;;;;;10.90;9.03;;;9.20;99.90;;;;;;5051355;28;20210;-60
2021/09/22 02:02:59;;;;;;;9.80;8.13;;;9.20;99.90;;;;;;5051111;28;20725;-60
2021/09/22 02:05:26;;;;;;;9.17;8.13;;;9.10;99.90;;;;;;5051041;28;20202;-60
2021/09/22 02:07:53;;;;;;;8.70;7.77;;;9.00;99.90;;;;;;5051091;28;20241;-60
2021/09/22 02:10:20;;;;;;;9.10;8.07;;;9.00;99.90;;;;;;5051158;28;20275;-60
2021/09/22 02:12:47;;;;;;;9.20;8.27;;;9.00;99.90;;;;;;5050413;28;20201;-60
2021/09/22 02:15:15;;;;;;;9.33;8.33;;;8.90;99.90;;;;;;5050756;28;20673;-60
2021/09/22 02:17:42;;;;;;;10.20;8.53;;;8.90;99.90;;;;;;5050870;28;20599;-60
2021/09/22 02:20:10;;;;;;;12.40;9.60;;;8.90;99.90;;;;;;5050973;28;20205;-60
2021/09/22 02:22:37;;;;;;;13.50;10.27;;;8.90;99.90;;;;;;5051034;28;20395;-60
2021/09/22 02:25:05;;;;;;;12.80;9.73;;;8.90;99.90;;;;;;5050980;28;20250;-60
2021/09/22 02:27:32;;;;;;;10.60;9.50;;;8.90;99.90;;;;;;5051174;28;20585;-60
2021/09/22 02:29:58;;;;;;;10.67;9.00;;;8.90;99.90;;;;;;5051194;28;20206;-60
2021/09/22 02:32:26;;;;;;;9.37;8.33;;;8.80;99.90;;;;;;5051431;28;20220;-60
2021/09/22 02:34:53;;;;;;;9.53;8.53;;;8.80;99.90;;;;;;5050905;28;20201;-60
2021/09/22 02:37:20;;;;;;;11.00;8.77;;;8.80;99.90;;;;;;5050626;28;20216;-60
2021/09/22 02:39:46;;;;;;;10.10;9.00;;;8.80;99.90;;;;;;5050664;28;20232;-60
2021/09/22 02:42:13;;;;;;;10.77;8.80;;;8.70;99.90;;;;;;5050732;28;20213;-60
2021/09/22 02:44:40;;;;;;;10.57;8.63;;;8.70;99.90;;;;;;5050504;28;20229;-60
2021/09/22 02:47:06;;;;;;;12.80;9.63;;;8.70;99.90;;;;;;5050677;28;20212;-60
2021/09/22 02:49:34;;;;;;;13.07;9.83;;;8.70;99.90;;;;;;5050527;28;20457;-60
2021/09/22 02:52:01;;;;;;;12.37;9.50;;;8.60;99.90;;;;;;5050587;28;20209;-60
2021/09/22 02:54:28;;;;;;;10.97;8.63;;;8.50;99.90;;;;;;5050644;28;20240;-59
2021/09/22 02:56:54;;;;;;;9.63;8.63;;;8.50;99.90;;;;;;5050440;28;20674;-60
2021/09/22 02:59:21;;;;;;;10.53;9.30;;;8.50;99.90;;;;;;5050600;28;20697;-60
2021/09/22 03:01:48;;;;;;;11.47;9.43;;;8.50;99.90;;;;;;5050576;28;20271;-60
2021/09/22 03:04:15;;;;;;;12.30;10.17;;;8.40;99.90;;;;;;5050338;28;20222;-60
2021/09/22 03:06:43;;;;;;;16.70;11.67;;;8.40;99.90;;;;;;5050779;28;20386;-60
2021/09/22 03:09:10;;;;;;;12.80;10.77;;;8.40;99.90;;;;;;5050242;28;20307;-60
2021/09/22 03:11:37;;;;;;;15.03;10.60;;;8.50;99.90;;;;;;5050503;28;20205;-60
2021/09/22 03:14:03;;;;;;;11.40;9.83;;;8.50;99.90;;;;;;5050139;28;20570;-60
2021/09/22 03:16:32;;;;;;;13.33;10.57;;;8.60;99.90;;;;;;5050293;28;20670;-60
2021/09/22 03:18:58;;;;;;;12.47;9.90;;;8.60;99.90;;;;;;5050583;28;20630;-60
2021/09/22 03:21:25;;;;;;;14.30;9.23;;;8.50;99.90;;;;;;5050137;28;20731;-60
2021/09/22 03:23:53;;;;;;;12.03;9.50;;;8.50;99.90;;;;;;5050998;28;20225;-60
2021/09/22 03:26:20;;;;;;;11.33;9.20;;;8.60;99.90;;;;;;5054209;28;20591;-60
2021/09/22 03:28:47;;;;;;;11.97;9.70;;;8.60;99.90;;;;;;5054316;28;20291;-60
2021/09/22 03:31:14;;;;;;;13.30;9.80;;;8.60;99.90;;;;;;5053848;28;20263;-60
2021/09/22 03:33:40;;;;;;;12.63;9.70;;;8.50;99.90;;;;;;5053669;28;20213;-60
2021/09/22 03:36:07;;;;;;;10.70;9.23;;;8.50;99.90;;;;;;5054153;28;20209;-60
2021/09/22 03:38:35;;;;;;;11.17;9.67;;;8.50;99.90;;;;;;5053787;28;20229;-60
2021/09/22 03:41:04;;;;;;;11.30;9.53;;;8.40;99.90;;;;;;5053838;28;20209;-60
2021/09/22 03:43:31;;;;;;;10.77;9.67;;;8.40;99.90;;;;;;5053606;28;20705;-60
2021/09/22 03:45:57;;;;;;;11.07;9.97;;;8.40;99.90;;;;;;5054042;28;20232;-60
2021/09/22 03:48:24;;;;;;;11.07;9.87;;;8.50;99.90;;;;;;5053706;28;20234;-60
2021/09/22 03:50:51;;;;;;;13.33;10.30;;;8.40;99.90;;;;;;5053844;28;20210;-60
2021/09/22 03:53:19;;;;;;;11.67;9.90;;;8.40;99.90;;;;;;5053820;28;20657;-59
2021/09/22 03:55:46;;;;;;;11.10;9.93;;;8.40;99.90;;;;;;5053370;28;20209;-60
2021/09/22 03:58:15;;;;;;;10.97;9.87;;;8.40;99.90;;;;;;5053280;28;20279;-59
2021/09/22 04:00:43;;;;;;;11.83;10.07;;;8.40;99.90;;;;;;5053373;28;20210;-60
2021/09/22 04:03:09;;;;;;;13.40;10.90;;;8.40;99.90;;;;;;5053543;28;20208;-60
2021/09/22 04:05:36;;;;;;;11.67;10.27;;;8.40;99.90;;;;;;5053387;28;20206;-60
2021/09/22 04:08:03;;;;;;;12.80;10.47;;;8.40;99.90;;;;;;5053673;28;20240;-61
2021/09/22 04:10:30;;;;;;;12.57;9.93;;;8.40;99.90;;;;;;5053328;28;20206;-61
2021/09/22 04:12:56;;;;;;;11.53;9.93;;;8.40;99.90;;;;;;5053342;28;20617;-60
2021/09/22 04:15:24;;;;;;;11.10;9.33;;;8.40;99.90;;;;;;5053444;28;20201;-60
2021/09/22 04:17:51;;;;;;;13.23;9.77;;;8.40;99.90;;;;;;5053241;28;20209;-60
2021/09/22 04:20:18;;;;;;;11.67;10.33;;;8.40;99.90;;;;;;5053213;28;20213;-61
2021/09/22 04:22:45;;;;;;;13.10;11.03;;;8.40;99.90;;;;;;5053168;28;20221;-61
2021/09/22 04:25:12;;;;;;;10.60;9.50;;;8.30;99.90;;;;;;5052758;28;20656;-61
2021/09/22 04:27:40;;;;;;;11.43;9.67;;;8.30;99.90;;;;;;5052631;28;20206;-59
2021/09/22 04:30:08;;;;;;;13.10;9.97;;;8.20;99.90;;;;;;5053318;28;20691;-60
2021/09/22 04:32:36;;;;;;;10.43;9.40;;;8.20;99.90;;;;;;5053024;28;20300;-60
2021/09/22 04:35:04;;;;;;;10.70;9.57;;;8.20;99.90;;;;;;5052415;28;20256;-61
2021/09/22 04:37:35;;;;;;;12.50;10.30;;;8.20;99.90;;;;;;5052328;28;20202;-62
2021/09/22 04:40:04;;;;;;;11.37;9.70;;;8.20;99.90;;;;;;5052506;28;20209;-60
2021/09/22 04:42:30;;;;;;;11.23;10.07;;;8.20;99.90;;;;;;5052687;28;20549;-60
2021/09/22 04:44:57;;;;;;;12.83;10.47;;;8.20;99.90;;;;;;5052652;28;20198;-60
2021/09/22 04:47:24;;;;;;;11.70;10.37;;;8.20;99.90;;;;;;5052609;28;20670;-60
2021/09/22 04:49:52;;;;;;;15.13;10.70;;;8.20;99.90;;;;;;5052614;28;20229;-61
2021/09/22 04:52:19;;;;;;;11.90;10.60;;;8.20;99.90;;;;;;5052559;28;20609;-60
2021/09/22 04:54:45;;;;;;;13.03;10.83;;;8.20;99.90;;;;;;5052176;28;20283;-60
2021/09/22 04:57:12;;;;;;;12.83;10.87;;;8.20;99.90;;;;;;5052157;28;20665;-60
2021/09/22 04:59:39;;;;;;;14.63;12.37;;;8.20;99.90;;;;;;5052233;28;20233;-61
2021/09/22 05:02:05;;;;;;;11.83;10.23;;;8.20;99.90;;;;;;5052365;28;20236;-60
2021/09/22 05:04:32;;;;;;;13.57;11.20;;;8.10;99.90;;;;;;5052461;28;20209;-60
2021/09/22 05:07:00;;;;;;;12.50;10.77;;;8.20;99.90;;;;;;5052067;28;20216;-60
2021/09/22 05:09:27;;;;;;;11.93;10.43;;;8.30;99.90;;;;;;5052008;28;20731;-61
2021/09/22 05:11:54;;;;;;;13.47;11.00;;;8.30;99.90;;;;;;5052371;28;20209;-59
2021/09/22 05:14:21;;;;;;;14.07;12.30;;;8.30;99.90;;;;;;5051898;28;20228;-60
2021/09/22 05:16:48;;;;;;;15.07;11.80;;;8.40;99.90;;;;;;5051921;28;20583;-59
2021/09/22 05:19:14;;;;;;;15.67;11.27;;;8.40;99.90;;;;;;5051776;28;20221;-60
2021/09/22 05:21:41;;;;;;;13.97;11.23;;;8.40;99.90;;;;;;5051912;28;20206;-60
2021/09/22 05:24:09;;;;;;;12.57;10.97;;;8.40;99.90;;;;;;5052009;28;20205;-61
2021/09/22 05:26:36;;;;;;;12.30;11.00;;;8.40;99.90;;;;;;5052085;28;20217;-61
2021/09/22 05:29:03;;;;;;;15.20;11.50;;;8.40;99.90;;;;;;5051657;28;20232;-60
2021/09/22 05:31:30;;;;;;;15.07;11.70;;;8.50;99.90;;;;;;5052065;28;20210;-59
2021/09/22 05:33:58;;;;;;;17.20;11.40;;;8.50;99.90;;;;;;5051660;28;20233;-60
2021/09/22 05:36:24;;;;;;;15.00;11.30;;;8.50;99.90;;;;;;5051564;28;20209;-60
2021/09/22 05:38:51;;;;;;;12.60;10.57;;;8.60;99.90;;;;;;5051401;28;20235;-60
2021/09/22 05:41:19;;;;;;;17.47;11.37;;;8.70;99.90;;;;;;5052092;28;20582;-61
2021/09/22 05:43:46;;;;;;;15.00;12.13;;;8.80;99.90;;;;;;5051770;28;20259;-60
2021/09/22 05:46:13;;;;;;;13.30;11.10;;;8.90;99.90;;;;;;5052254;28;20201;-60
2021/09/22 05:48:40;;;;;;;14.13;11.13;;;9.00;99.90;;;;;;5051491;28;20229;-61
2021/09/22 05:51:06;;;;;;;14.50;11.43;;;9.10;99.90;;;;;;5051585;28;20632;-61
2021/09/22 05:53:33;;;;;;;15.73;10.90;;;9.30;99.90;;;;;;5051735;28;20217;-61
2021/09/22 05:56:00;;;;;;;22.07;14.47;;;9.30;99.90;;;;;;5051089;28;20710;-60
2021/09/22 05:58:28;;;;;;;20.87;16.83;;;9.40;99.90;;;;;;5051069;28;20225;-61
2021/09/22 06:00:56;;;;;;;12.37;11.07;;;9.60;99.90;;;;;;5051238;28;20210;-61
2021/09/22 06:03:23;;;;;;;13.80;11.43;;;9.70;99.90;;;;;;5050736;28;20214;-60
2021/09/22 06:05:50;;;;;;;12.93;11.23;;;9.80;99.90;;;;;;5051348;28;20210;-62
2021/09/22 06:08:17;;;;;;;12.87;10.47;;;9.90;99.90;;;;;;5050967;28;20267;-61
2021/09/22 06:10:44;;;;;;;11.70;10.13;;;10.00;99.90;;;;;;5051139;28;20214;-61
2021/09/22 06:13:11;;;;;;;11.80;9.97;;;10.20;99.90;;;;;;5050939;28;20213;-61
2021/09/22 06:15:39;;;;;;;12.90;10.17;;;10.60;99.90;;;;;;5050692;28;20229;-61
2021/09/22 06:18:06;;;;;;;11.80;10.00;;;11.10;99.90;;;;;;5050538;28;20236;-61
2021/09/22 06:20:33;;;;;;;11.77;9.93;;;11.60;99.90;;;;;;5050926;28;20209;-61
2021/09/22 06:22:59;;;;;;;12.43;9.07;;;12.20;99.90;;;;;;5050955;28;20339;-61
2021/09/22 06:25:26;;;;;;;14.97;8.87;;;12.80;99.90;;;;;;5050809;28;20210;-62
2021/09/22 06:27:53;;;;;;;12.27;7.73;;;13.40;99.90;;;;;;5050476;28;20237;-61
2021/09/22 06:30:20;;;;;;;10.77;8.30;;;14.00;99.90;;;;;;5050696;28;20205;-61
2021/09/22 06:32:48;;;;;;;13.90;7.87;;;14.50;99.90;;;;;;5050737;28;20209;-62
2021/09/22 06:35:14;;;;;;;9.67;8.33;;;15.10;99.90;;;;;;5050821;28;20598;-62
2021/09/22 06:37:41;;;;;;;10.00;7.57;;;15.60;99.90;;;;;;5050757;28;20206;-60
2021/09/22 06:40:09;;;;;;;10.20;7.90;;;16.10;99.90;;;;;;5050770;28;20209;-60
2021/09/22 06:42:35;;;;;;;9.20;8.30;;;16.60;99.90;;;;;;5050895;28;20212;-60
2021/09/22 06:45:03;;;;;;;12.63;9.40;;;17.20;99.90;;;;;;5050444;28;20201;-61
2021/09/22 06:47:29;;;;;;;13.40;7.70;;;17.90;99.90;;;;;;5051199;28;20213;-60
2021/09/22 06:49:57;;;;;;;10.65;7.97;;;18.40;99.90;;;;;;5050322;28;20732;-60
2021/09/22 06:52:24;;;;;;;8.33;7.53;;;18.80;99.90;;;;;;5050639;28;20209;-60
2021/09/22 06:54:51;;;;;;;9.68;8.38;;;19.10;99.90;;;;;;5050382;28;20225;-60
2021/09/22 06:57:17;;;;;;;11.02;8.10;;;19.40;99.90;;;;;;5050513;28;20245;-60
2021/09/22 06:59:44;;;;;;;11.55;7.57;;;19.60;99.90;;;;;;5052384;28;20225;-59
2021/09/22 07:02:11;;;;;;;11.95;7.53;;;19.70;99.90;;;;;;5055253;28;20212;-60
2021/09/22 07:04:37;;;;;;;9.65;7.47;;;20.00;99.90;;;;;;5054583;28;20206;-60
2021/09/22 07:07:06;;;;;;;11.15;7.22;;;20.00;99.90;;;;;;5054324;28;20208;-60
2021/09/22 07:09:32;;;;;;;9.65;7.63;;;20.00;99.90;;;;;;5054411;28;20275;-61
2021/09/22 07:11:59;;;;;;;10.27;8.88;;;19.90;99.90;;;;;;5054269;28;20205;-61
2021/09/22 07:14:26;;;;;;;8.50;7.38;;;19.70;99.90;;;;;;5054456;28;20228;-61
2021/09/22 07:16:53;;;;;;;7.97;7.15;;;19.70;99.90;;;;;;5054396;28;20530;-61
2021/09/22 07:19:20;;;;;;;11.07;7.57;;;19.90;99.90;;;;;;5054026;28;20263;-60
2021/09/22 07:21:46;;;;;;;8.45;7.30;;;20.10;99.90;;;;;;5054049;28;20216;-60
2021/09/22 07:24:14;;;;;;;11.05;7.90;;;20.20;99.90;;;;;;5053786;28;20678;-60
2021/09/22 07:26:41;;;;;;;8.70;7.43;;;20.20;99.90;;;;;;5054142;28;20219;-59
2021/09/22 07:29:09;;;;;;;8.40;7.68;;;20.10;99.90;;;;;;5053746;28;20705;-59
2021/09/22 07:31:36;;;;;;;8.73;7.90;;;19.90;99.90;;;;;;5053928;28;20668;-60
2021/09/22 07:34:03;;;;;;;12.10;7.90;;;19.60;99.90;;;;;;5053649;28;20213;-60
2021/09/22 07:36:31;;;;;;;9.80;8.10;;;19.10;99.90;;;;;;5053763;28;20228;-59
2021/09/22 07:38:58;;;;;;;12.82;8.15;;;18.60;99.90;;;;;;5053456;28;20230;-60
2021/09/22 07:41:26;;;;;;;11.45;8.32;;;18.20;99.90;;;;;;5053764;28;20705;-59
2021/09/22 07:43:52;;;;;;;9.13;8.13;;;17.80;99.90;;;;;;5053846;28;20213;-59
2021/09/22 07:46:19;;;;;;;9.30;8.50;;;17.40;99.90;;;;;;5053672;28;20205;-60
2021/09/22 07:48:46;;;;;;;10.67;9.57;;;17.10;99.90;;;;;;5053384;28;20736;-60
2021/09/22 07:51:13;;;;;;;9.97;8.97;;;16.80;99.90;;;;;;5053558;28;20209;-60
2021/09/22 07:53:40;;;;;;;10.27;9.23;;;16.50;99.90;;;;;;5053495;28;20205;-60
2021/09/22 07:56:07;;;;;;;9.80;8.80;;;16.20;99.90;;;;;;5053805;28;20226;-60
2021/09/22 07:58:35;;;;;;;12.10;9.63;;;15.90;99.90;;;;;;5053590;28;20233;-60
2021/09/22 08:01:01;;;;;;;10.17;9.07;;;15.90;99.90;;;;;;5053828;28;20208;-59
2021/09/22 08:03:28;;;;;;;10.53;8.93;;;16.00;99.90;;;;;;5053540;28;20592;-60
2021/09/22 08:05:55;;;;;;;10.67;9.27;;;16.10;99.90;;;;;;5053277;28;20206;-64
2021/09/22 08:08:21;;;;;;;11.07;9.37;;;16.30;99.90;;;;;;5052896;28;20229;-59
2021/09/22 08:10:48;;;;;;;9.50;8.43;;;16.50;99.90;;;;;;5052044;28;20205;-61
2021/09/22 08:13:15;;;;;;;14.03;9.53;;;16.70;99.90;;;;;;5053361;28;20278;-60
2021/09/22 08:15:44;;;;;;;12.50;10.40;;;16.90;99.90;;;;;;5053304;28;20229;-60
2021/09/22 08:18:10;;;;;;;9.90;8.90;;;16.90;99.90;;;;;;5052994;28;20709;-59
2021/09/22 08:20:37;;;;;;;11.93;9.23;;;17.00;99.90;;;;;;5053010;28;20209;-60
2021/09/22 08:23:04;;;;;;;11.70;8.50;;;17.10;99.90;;;;;;5052994;28;20665;-61
2021/09/22 08:25:31;;;;;;;9.33;8.43;;;17.10;99.90;;;;;;5053162;28;20206;-60
2021/09/22 08:27:58;;;;;;;9.27;8.27;;;17.30;99.90;;;;;;5052827;28;20230;-60
2021/09/22 08:30:25;;;;;;;10.23;8.30;;;17.40;99.90;;;;;;5053315;28;20213;-60
2021/09/22 08:32:53;;;;;;;9.10;8.20;;;17.50;99.90;;;;;;5052840;28;20613;-60
2021/09/22 08:35:20;;;;;;;9.40;7.90;;;17.50;99.90;;;;;;5052539;28;20312;-59
2021/09/22 08:37:47;;;;;;;9.00;8.05;;;17.60;99.90;;;;;;5052423;28;20205;-61
2021/09/22 08:40:15;;;;;;;8.73;7.60;;;17.60;99.90;;;;;;5052668;28;20210;-61
2021/09/22 08:42:42;;;;;;;10.73;7.43;;;17.60;99.90;;;;;;5052578;28;20629;-61
2021/09/22 08:45:11;;;;;;;9.57;6.97;;;17.60;99.90;;;;;;5052116;28;20289;-60
2021/09/22 08:47:40;;;;;;;11.13;7.30;;;17.60;99.90;;;;;;5052313;28;20202;-60
2021/09/22 08:50:09;;;;;;;8.80;7.10;;;17.60;99.90;;;;;;5052230;28;20255;-59
2021/09/22 08:52:36;;;;;;;8.40;7.60;;;17.70;99.90;;;;;;5052510;28;20212;-59
2021/09/22 08:55:05;;;;;;;10.13;7.88;;;17.70;99.90;;;;;;5052465;28;20229;-60
2021/09/22 08:57:32;;;;;;;8.77;6.57;;;17.80;99.90;;;;;;5052380;28;20255;-60
2021/09/22 08:59:59;;;;;;;12.77;7.53;;;17.80;99.90;;;;;;5052022;28;20670;-61
2021/09/22 09:02:26;;;;;;;8.57;7.77;;;17.80;99.90;;;;;;5052194;28;20210;-60
2021/09/22 09:05:03;;;;;;;9.37;7.03;;;17.90;99.90;;;;;;5051860;28;20209;-61
2021/09/22 09:07:45;;;;;;;9.60;6.88;;;17.80;99.90;;;;;;5052348;28;20629;-60
2021/09/22 09:10:12;;;;;;;7.73;6.53;;;17.90;99.90;;;;;;5051838;28;20216;-59
2021/09/22 09:12:39;;;;;;;7.23;6.50;;;18.00;99.90;;;;;;5052081;28;20212;-60
2021/09/22 09:15:11;;;;;;;6.88;6.18;;;18.00;99.90;;;;;;5051637;28;20225;-60
2021/09/22 09:17:42;;;;;;;7.22;6.30;;;18.00;99.90;;;;;;5052164;28;20213;-61
2021/09/22 09:20:19;;;;;;;9.10;6.25;;;18.10;99.90;;;;;;5052249;28;20221;-59
2021/09/22 09:23:09;;;;;;;6.70;6.00;;;18.20;99.90;;;;;;5051574;28;20673;-60
2021/09/22 09:25:39;;;;;;;8.68;6.93;;;18.40;99.90;;;;;;5052012;28;20685;-60
2021/09/22 09:28:21;;;;;;;10.95;6.43;;;18.50;99.90;;;;;;5052049;28;20229;-60
2021/09/22 09:30:51;;;;;;;8.00;6.18;;;18.50;99.90;;;;;;5052126;28;20205;-60
2021/09/22 09:33:39;;;;;;;6.47;5.80;;;18.70;99.90;;;;;;5051836;28;20201;-60
2021/09/22 09:36:34;;;;;;;6.75;5.97;;;18.90;99.90;;;;;;5051550;28;20229;-61
2021/09/22 09:39:07;;;;;;;10.02;6.32;;;18.90;99.90;;;;;;5051520;28;20744;-60
2021/09/22 09:41:39;;;;;;;6.10;5.50;;;19.00;99.90;;;;;;5041358;28;20214;-60
2021/09/22 09:44:09;;;;;;;6.57;5.40;;;19.00;99.90;;;;;;5031230;28;20216;-57
2021/09/22 09:46:38;;;;;;;6.40;5.10;;;18.90;99.90;;;;;;5031039;28;20674;-61
2021/09/22 09:49:08;;;;;;;6.90;4.82;;;18.90;99.90;;;;;;5030979;28;20726;-61
2021/09/22 09:51:41;;;;;;;7.53;4.60;;;18.90;99.90;;;;;;5030809;28;20214;-61
2021/09/22 09:54:13;;;;;;;5.82;5.22;;;18.80;99.90;;;;;;5030898;28;20202;-61
2021/09/22 09:56:40;;;;;;;6.72;5.72;;;18.70;99.90;;;;;;5030729;28;20229;-63
2021/09/22 09:59:07;;;;;;;6.25;5.22;;;18.50;99.90;;;;;;5030739;28;20293;-64
2021/09/22 10:01:40;;;;;;;7.30;5.10;;;18.50;99.90;;;;;;5030808;28;20578;-64
2021/09/22 10:04:09;;;;;;;5.60;5.10;;;18.60;99.90;;;;;;5030977;28;20210;-61
2021/09/22 10:06:36;;;;;;;6.88;4.57;;;18.80;99.90;;;;;;5031116;28;20229;-63
2021/09/22 10:09:04;;;;;;;5.93;4.00;;;18.90;99.90;;;;;;5031225;28;20237;-60
2021/09/22 10:11:33;;;;;;;5.72;5.13;;;19.10;99.90;;;;;;5030927;28;20578;-60
2021/09/22 10:14:01;;;;;;;4.85;4.40;;;19.20;99.90;;;;;;5030245;28;20213;-58
2021/09/22 10:16:28;;;;;;;6.80;4.28;;;19.40;99.90;;;;;;5030943;28;20316;-58
2021/09/22 10:18:57;;;;;;;4.80;3.90;;;19.50;99.90;;;;;;5030698;28;20238;-59
2021/09/22 10:21:24;;;;;;;5.90;4.57;;;19.70;99.90;;;;;;5031619;28;20206;-59
2021/09/22 10:23:52;;;;;;;5.30;4.78;;;19.80;99.90;;;;;;5030336;28;20638;-57
2021/09/22 10:26:19;;;;;;;4.28;3.20;;;19.80;99.90;;;;;;5031065;28;20198;-59
2021/09/22 10:28:48;;;;;;;2.45;2.20;;;19.90;99.90;;;;;;5031143;28;20229;-58
2021/09/22 10:31:18;;;;;;;2.33;2.13;;;19.80;99.90;;;;;;5030698;28;20673;-57
2021/09/22 10:33:46;;;;;;;3.13;2.20;;;19.80;99.50;;;;;;5029770;28;20209;-58
2021/09/22 10:36:15;;;;;;;3.00;2.28;;;19.80;99.30;;;;;;5030436;28;20225;-58
2021/09/22 10:38:44;;;;;;;4.00;2.20;;;19.90;99.40;;;;;;5030595;28;20725;-60
2021/09/22 10:41:12;;;;;;;3.83;2.50;;;20.00;98.80;;;;;;5030792;28;20213;-59
2021/09/22 10:43:43;;;;;;;2.40;2.20;;;20.10;99.00;;;;;;5030741;28;20217;-58
2021/09/22 10:46:16;;;;;;;3.90;2.42;;;20.20;98.90;;;;;;5030796;28;20217;-60
2021/09/22 10:48:57;;;;;;;4.78;2.63;;;20.50;98.50;;;;;;5030592;28;20233;-58
2021/09/22 10:51:29;;;;;;;2.90;2.38;;;20.60;98.90;;;;;;5030617;28;20206;-61
2021/09/22 10:54:09;;;;;;;2.92;2.28;;;20.70;98.40;;;;;;5030214;28;20214;-58
2021/09/22 10:56:51;;;;;;;2.78;2.58;;;20.70;98.00;;;;;;5030738;28;20222;-56
2021/09/22 10:59:27;;;;;;;2.92;2.63;;;20.50;98.30;;;;;;5030630;28;20276;-55
2021/09/22 11:01:55;;;;;;;3.10;2.30;;;20.50;98.50;;;;;;5030660;28;20256;-56
2021/09/22 11:04:22;;;;;;;3.38;2.55;;;20.60;98.90;;;;;;5030449;28;20206;-56
2021/09/22 11:06:59;;;;;;;4.22;2.42;;;20.60;99.00;;;;;;5030032;28;20301;-64
2021/09/22 11:09:34;;;;;;;5.13;2.80;;;20.40;99.20;;;;;;5030222;28;20237;-56
2021/09/22 11:12:10;;;;;;;4.85;2.67;;;20.40;99.20;;;;;;5030477;28;20212;-58
2021/09/22 11:14:40;;;;;;;3.65;2.78;;;20.50;99.10;;;;;;5030541;28;20256;-59
2021/09/22 11:17:11;;;;;;;3.30;2.83;;;20.70;99.20;;;;;;5032316;28;20300;-59
2021/09/22 11:19:40;;;;;;;2.58;2.30;;;20.90;99.40;;;;;;5049779;28;20225;-57
2021/09/22 11:22:10;;;;;;;3.42;2.40;;;21.00;99.20;;;;;;5050143;28;20259;-56
2021/09/22 11:24:37;;;;;;;4.35;2.58;;;21.20;99.20;;;;;;5050441;28;20213;-55
2021/09/22 11:27:06;;;;;;;4.15;2.63;;;21.30;99.10;;;;;;5050214;28;20212;-61
2021/09/22 11:29:35;;;;;;;3.35;2.75;;;21.60;98.80;;;;;;5049887;28;20221;-59
2021/09/22 11:32:04;;;;;;;3.78;2.78;;;21.80;98.10;;;;;;5049823;28;20232;-58
2021/09/22 11:34:35;;;;;;;4.15;2.65;;;21.80;98.00;;;;;;5050113;28;20206;-58
2021/09/22 11:37:07;;;;;;;3.88;2.80;;;21.90;98.50;;;;;;5049996;28;20320;-60
2021/09/22 11:39:33;;;;;;;5.95;3.33;;;21.90;98.30;;;;;;5049647;28;20233;-58
2021/09/22 11:42:00;;;;;;;5.40;2.80;;;21.90;98.50;;;;;;5050129;28;20666;-56
2021/09/22 11:44:28;;;;;;;4.53;3.33;;;21.80;98.30;;;;;;5049750;28;20205;-56
2021/09/22 11:46:58;;;;;;;3.70;2.92;;;22.00;98.10;;;;;;5053551;28;20201;-55
2021/09/22 11:49:35;;;;;;;3.42;2.92;;;22.00;98.10;;;;;;5053165;28;20237;-56
2021/09/22 11:52:08;;;;;;;4.93;3.03;;;21.80;98.10;;;;;;5053600;28;20673;-56
2021/09/22 11:54:35;;;;;;;6.00;2.83;;;21.60;98.30;;;;;;5053371;28;20229;-57
2021/09/22 11:57:07;;;;;;;3.00;2.70;;;21.60;98.60;;;;;;5053171;28;20225;-57
2021/09/22 11:59:35;;;;;;;2.75;2.17;;;21.60;98.80;;;;;;5053032;28;20233;-55
2021/09/22 12:02:02;;;;;;;3.38;2.35;;;21.70;98.40;;;;;;5052935;28;20212;-57
2021/09/22 12:04:33;;;;;;;3.22;2.08;;;21.70;98.20;;;;;;5053155;28;20669;-56
2021/09/22 12:07:00;;;;;;;5.80;2.33;;;21.70;97.70;;;;;;5053319;28;20673;-57
2021/09/22 12:09:27;;;;;;;5.57;3.25;;;21.90;97.90;;;;;;5052683;28;20848;-55
2021/09/22 12:12:16;;;;;;;3.03;2.70;;;21.90;97.80;;;;;;5053041;28;20236;-57
2021/09/22 12:14:50;;;;;;;5.55;2.88;;;21.90;98.10;;;;;;5053029;28;20206;-55
2021/09/22 12:17:19;;;;;;;5.93;2.95;;;22.00;97.90;;;;;;5052942;28;20232;-55
2021/09/22 12:19:48;;;;;;;3.33;2.55;;;22.00;97.40;;;;;;5052877;28;20226;-59
2021/09/22 12:22:21;;;;;;;4.70;2.20;;;22.10;97.40;;;;;;5052985;28;20205;-56
2021/09/22 12:24:48;;;;;;;3.28;2.13;;;22.30;96.80;;;;;;5052798;28;20585;-55
2021/09/22 12:27:18;;;;;;;5.65;2.20;;;22.50;96.70;;;;;;5053214;28;20206;-56
2021/09/22 12:29:56;;;;;;;4.95;2.30;;;22.50;96.70;;;;;;5052577;28;20226;-59
2021/09/22 12:32:24;;;;;;;3.13;2.30;;;22.50;96.90;;;;;;5052991;28;20670;-55
2021/09/22 12:34:52;;;;;;;8.95;2.65;;;22.40;97.20;;;;;;5052479;28;20209;-55
2021/09/22 12:37:21;;;;;;;6.72;2.80;;;22.50;96.80;;;;;;5052541;28;20234;-56
2021/09/22 12:39:59;;;;;;;4.32;1.92;;;22.40;96.00;;;;;;5052545;28;20233;-55
2021/09/22 12:42:36;;;;;;;5.38;2.00;;;22.50;96.90;;;;;;5052585;28;20205;-58
2021/09/22 12:45:07;;;;;;;5.97;2.03;;;22.50;97.00;;;;;;5052256;28;20224;-60
2021/09/22 12:47:35;;;;;;;3.35;1.90;;;22.60;96.80;;;;;;5052113;28;20209;-57
2021/09/22 12:50:08;;;;;;;2.78;1.63;;;22.60;96.20;;;;;;5052415;28;20206;-58